Concho — WDI7438 — position and weather

sailwx.info

Track history (hours):
 
Tides and Currents Weather Stations Pressure Air Temp Water Temp Dewpoint Dewpoint Depression Visibility Wind Speed Wind Dir Waves Ship Positions

Concho

Owner: Kirby Inland Marine LP, Houston, TX. More information available from US FCC via Universal Licensing System and Coast Guard Vessel Documentation Center.

Last reported at 2018-Feb-21 06:12 UTC. Time now 2018-Feb-26 03:36 UTC.
Position N 29°26' W 094°43'.

Length 208 m; draft 2.9 m.

Type: . MMSI: 367728730.

Date/timePositionNaut miles runAvg speedWind from/ knotsBaromVisibWave heightAir tempDewpointWater temp
2018-Feb-21 06:12N 29°26' W 094°43'0 0.0
2018-Feb-21 06:00N 29°26' W 094°43'0 0.0
2018-Feb-21 04:12N 29°26' W 094°43'0 0.0
2018-Feb-21 03:24N 29°26' W 094°43'0 0.0
2018-Feb-21 02:54N 29°26' W 094°43'0 0.0
2018-Feb-21 02:15N 29°26' W 094°43'0 0.0
2018-Feb-21 00:46N 29°26' W 094°43'0 0.0
2018-Feb-21 00:30N 29°26' W 094°43'0 0.0
2018-Feb-20 23:25N 29°26' W 094°43'0 0.0
2018-Feb-20 22:56N 29°26' W 094°43'0 0.0
2018-Feb-20 22:26N 29°26' W 094°43'0 0.0
2018-Feb-20 21:44N 29°26' W 094°43'0 0.0
2018-Feb-20 20:14N 29°26' W 094°43'8 2.3
2018-Feb-20 16:51N 29°21' W 094°50'13 3.8
2018-Feb-20 13:28N 29°13' W 095°02'5 1.5
2018-Feb-20 10:09N 29°10' W 095°06'14 4.8
2018-Feb-20 07:07N 28°59' W 095°16'1 3.9
2018-Feb-20 06:58N 28°59' W 095°17'36 3.2
2018-Feb-19 19:47N 28°43' W 095°54'3 4.6
2018-Feb-19 19:07N 28°42' W 095°57'1 3.6
2018-Feb-19 18:47N 28°41' W 095°58'1 2.9
2018-Feb-19 18:30N 28°41' W 095°59'1 2.2
2018-Feb-19 17:59N 28°40' W 096°00'6 3.6
2018-Feb-19 16:20N 28°38' W 096°06'14 4.4
2018-Feb-19 13:09N 28°30' W 096°20'1 5.8
2018-Feb-19 13:00N 28°29' W 096°20'4 5.2
2018-Feb-19 12:15N 28°27' W 096°24'1 4.4
2018-Feb-19 12:00N 28°26' W 096°25'2 4.4
2018-Feb-19 11:30N 28°25' W 096°27'2 4.6
2018-Feb-19 11:00N 28°24' W 096°30'3 4.6
2018-Feb-19 10:27N 28°23' W 096°32'2 4.4
2018-Feb-19 10:00N 28°22' W 096°34'2 4.3
2018-Feb-19 09:27N 28°21' W 096°36'9 5.0
2018-Feb-19 07:35N 28°16' W 096°45'1 6.2
2018-Feb-19 07:21N 28°15' W 096°46'2 4.6
2018-Feb-19 07:00N 28°14' W 096°48'2 4.5
2018-Feb-19 06:30N 28°12' W 096°50'2 4.6
2018-Feb-19 06:00N 28°11' W 096°52'2 4.4
2018-Feb-19 05:30N 28°09' W 096°54'2 4.0
2018-Feb-19 04:59N 28°08' W 096°55'2 4.2
2018-Feb-19 04:29N 28°06' W 096°56'3 6.0
2018-Feb-19 03:58N 28°04' W 096°59'3 6.0
2018-Feb-19 03:30N 28°01' W 097°00'3 6.1
2018-Feb-19 03:00N 27°59' W 097°03'4 5.9
2018-Feb-19 02:19N 27°55' W 097°03'2 7.1
2018-Feb-19 02:00N 27°53' W 097°03'3 6.1
2018-Feb-19 01:30N 27°50' W 097°05'  
2018-Feb-16 03:09N 27°49' W 097°29'0 0.0
2018-Feb-16 02:57N 27°49' W 097°29'0 0.0
2018-Feb-16 02:30N 27°49' W 097°29'0 0.0
2018-Feb-16 00:00N 27°49' W 097°29'0 0.0
2018-Feb-15 23:18N 27°49' W 097°29'0 0.0
2018-Feb-15 22:57N 27°49' W 097°29'  
2018-Feb-13 16:14N 27°49' W 097°19'2 7.8
2018-Feb-13 15:56N 27°49' W 097°16'3 7.4
2018-Feb-13 15:29N 27°49' W 097°12'3 6.3
2018-Feb-13 14:59N 27°50' W 097°09'3 6.2
2018-Feb-13 14:29N 27°50' W 097°05'3 5.3
2018-Feb-13 13:59N 27°52' W 097°03'4 8.1
2018-Feb-13 13:30N 27°56' W 097°04'3 6.5
2018-Feb-13 13:00N 27°59' W 097°03'4 7.0
2018-Feb-13 12:27N 28°02' W 096°60'3 6.8
2018-Feb-13 11:59N 28°05' W 096°58'3 6.6
2018-Feb-13 11:29N 28°07' W 096°55'3 7.1
2018-Feb-13 11:00N 28°10' W 096°53'4 7.2
2018-Feb-13 10:30N 28°12' W 096°50'4 6.2
2018-Feb-13 09:57N 28°14' W 096°47'  
Track history (hours):
 
Tides and Currents Weather Stations Pressure Air Temp Water Temp Dewpoint Dewpoint Depression Visibility Wind Speed Wind Dir Waves Ship Positions

Concho

Owner: Kirby Inland Marine LP, Houston, TX. More information available from US FCC via Universal Licensing System and Coast Guard Vessel Documentation Center.

Last reported at 2018-Feb-21 06:12 UTC. Time now 2018-Feb-26 03:36 UTC.
Position N 29°26' W 094°43'.

Length 208 m; draft 2.9 m.

Type: . MMSI: 367728730.

Date/timePositionNaut miles runAvg speedWind from/ knotsBaromVisibWave heightAir tempDewpointWater temp
2018-Feb-21 06:12N 29°26' W 094°43'0 0.0
2018-Feb-21 06:00N 29°26' W 094°43'0 0.0
2018-Feb-21 04:12N 29°26' W 094°43'0 0.0
2018-Feb-21 03:24N 29°26' W 094°43'0 0.0
2018-Feb-21 02:54N 29°26' W 094°43'0 0.0
2018-Feb-21 02:15N 29°26' W 094°43'0 0.0
2018-Feb-21 00:46N 29°26' W 094°43'0 0.0
2018-Feb-21 00:30N 29°26' W 094°43'0 0.0
2018-Feb-20 23:25N 29°26' W 094°43'0 0.0
2018-Feb-20 22:56N 29°26' W 094°43'0 0.0
2018-Feb-20 22:26N 29°26' W 094°43'0 0.0
2018-Feb-20 21:44N 29°26' W 094°43'0 0.0
2018-Feb-20 20:14N 29°26' W 094°43'8 2.3
2018-Feb-20 16:51N 29°21' W 094°50'13 3.8
2018-Feb-20 13:28N 29°13' W 095°02'5 1.5
2018-Feb-20 10:09N 29°10' W 095°06'14 4.8
2018-Feb-20 07:07N 28°59' W 095°16'1 3.9
2018-Feb-20 06:58N 28°59' W 095°17'36 3.2
2018-Feb-19 19:47N 28°43' W 095°54'3 4.6
2018-Feb-19 19:07N 28°42' W 095°57'1 3.6
2018-Feb-19 18:47N 28°41' W 095°58'1 2.9
2018-Feb-19 18:30N 28°41' W 095°59'1 2.2
2018-Feb-19 17:59N 28°40' W 096°00'6 3.6
2018-Feb-19 16:20N 28°38' W 096°06'14 4.4
2018-Feb-19 13:09N 28°30' W 096°20'1 5.8
2018-Feb-19 13:00N 28°29' W 096°20'4 5.2
2018-Feb-19 12:15N 28°27' W 096°24'1 4.4
2018-Feb-19 12:00N 28°26' W 096°25'2 4.4
2018-Feb-19 11:30N 28°25' W 096°27'2 4.6
2018-Feb-19 11:00N 28°24' W 096°30'3 4.6
2018-Feb-19 10:27N 28°23' W 096°32'2 4.4
2018-Feb-19 10:00N 28°22' W 096°34'2 4.3
2018-Feb-19 09:27N 28°21' W 096°36'9 5.0
2018-Feb-19 07:35N 28°16' W 096°45'1 6.2
2018-Feb-19 07:21N 28°15' W 096°46'2 4.6
2018-Feb-19 07:00N 28°14' W 096°48'2 4.5
2018-Feb-19 06:30N 28°12' W 096°50'2 4.6
2018-Feb-19 06:00N 28°11' W 096°52'2 4.4
2018-Feb-19 05:30N 28°09' W 096°54'2 4.0
2018-Feb-19 04:59N 28°08' W 096°55'2 4.2
2018-Feb-19 04:29N 28°06' W 096°56'3 6.0
2018-Feb-19 03:58N 28°04' W 096°59'3 6.0
2018-Feb-19 03:30N 28°01' W 097°00'3 6.1
2018-Feb-19 03:00N 27°59' W 097°03'4 5.9
2018-Feb-19 02:19N 27°55' W 097°03'2 7.1
2018-Feb-19 02:00N 27°53' W 097°03'3 6.1
2018-Feb-19 01:30N 27°50' W 097°05'  
2018-Feb-16 03:09N 27°49' W 097°29'0 0.0
2018-Feb-16 02:57N 27°49' W 097°29'0 0.0
2018-Feb-16 02:30N 27°49' W 097°29'0 0.0
2018-Feb-16 00:00N 27°49' W 097°29'0 0.0
2018-Feb-15 23:18N 27°49' W 097°29'0 0.0
2018-Feb-15 22:57N 27°49' W 097°29'  
2018-Feb-13 16:14N 27°49' W 097°19'2 7.8
2018-Feb-13 15:56N 27°49' W 097°16'3 7.4
2018-Feb-13 15:29N 27°49' W 097°12'3 6.3
2018-Feb-13 14:59N 27°50' W 097°09'3 6.2
2018-Feb-13 14:29N 27°50' W 097°05'3 5.3
2018-Feb-13 13:59N 27°52' W 097°03'4 8.1
2018-Feb-13 13:30N 27°56' W 097°04'3 6.5
2018-Feb-13 13:00N 27°59' W 097°03'4 7.0
2018-Feb-13 12:27N 28°02' W 096°60'3 6.8
2018-Feb-13 11:59N 28°05' W 096°58'3 6.6
2018-Feb-13 11:29N 28°07' W 096°55'3 7.1
2018-Feb-13 11:00N 28°10' W 096°53'4 7.2
2018-Feb-13 10:30N 28°12' W 096°50'4 6.2
2018-Feb-13 09:57N 28°14' W 096°47'  

Dump ship's entire track history